Time;durP1;ratioP1;P1;durP2;ratioP2;P2;SDS_P1;SDS_P2;PMS_P1;PMS_P2;Temp;Humidity;BMP_temperature;BMP_pressure;BME280_temperature;BME280_humidity;BME280_pressure;Samples;Min_cycle;Max_cycle;Signal;HPM_P1;HPM_P2
2022/08/21 00:00:41;;;;;;;2.88;2.05;;;;;;;-144.47;100.00;61586.06;5031113;28;20061;-80
2022/08/21 00:03:10;;;;;;;2.92;1.92;;;;;;;-144.47;100.00;61586.06;5030389;28;20072;-80
2022/08/21 00:05:38;;;;;;;4.47;2.45;;;;;;;-144.47;100.00;61586.06;5013208;28;20108;-80
2022/08/21 00:08:04;;;;;;;3.03;1.88;;;;;;;-144.47;100.00;61586.06;5030753;28;20029;-79
2022/08/21 00:10:31;;;;;;;6.25;1.52;;;;;;;-144.47;100.00;61586.06;5031095;28;20040;-80
2022/08/21 00:12:56;;;;;;;3.47;1.50;;;;;;;-144.47;100.00;61586.06;5030946;28;20034;-80
2022/08/21 00:15:26;;;;;;;2.75;1.85;;;;;;;-144.47;100.00;61586.06;5031624;28;20036;-80
2022/08/21 00:17:52;;;;;;;2.38;1.92;;;;;;;-144.47;100.00;61586.06;5030620;28;20096;-80
2022/08/21 00:20:19;;;;;;;2.83;1.50;;;;;;;-144.47;100.00;61586.06;5012348;28;20088;-79
2022/08/21 00:22:45;;;;;;;1.90;1.70;;;;;;;-144.47;100.00;61586.06;5046067;28;20144;-81
2022/08/21 00:25:12;;;;;;;3.20;2.13;;;;;;;-144.47;100.00;61586.06;5030356;28;20025;-79
2022/08/21 00:27:38;;;;;;;2.75;1.50;;;;;;;-144.47;100.00;61586.06;5030820;28;20033;-81
2022/08/21 00:30:06;;;;;;;3.70;1.63;;;;;;;-144.47;100.00;61586.06;5030517;28;20130;-82
2022/08/21 00:32:33;;;;;;;2.13;1.90;;;;;;;-144.47;100.00;61586.06;5030638;28;20029;-81
2022/08/21 00:34:59;;;;;;;2.35;1.58;;;;;;;-144.47;100.00;61586.06;5030446;28;20034;-81
2022/08/21 00:37:24;;;;;;;2.13;1.90;;;;;;;-144.47;100.00;61586.06;5030306;28;20049;-81
2022/08/21 00:39:50;;;;;;;1.80;1.70;;;;;;;-144.47;100.00;61586.06;5030604;28;20029;-81
2022/08/21 00:42:17;;;;;;;1.88;1.77;;;;;;;-144.47;100.00;61586.06;5029021;28;20038;-82
2022/08/21 00:44:45;;;;;;;2.92;1.77;;;;;;;-144.47;100.00;61586.06;5030598;28;20105;-80
2022/08/21 00:47:11;;;;;;;2.90;1.75;;;;;;;-144.47;100.00;61586.06;5046641;28;20030;-82
2022/08/21 00:49:38;;;;;;;1.92;1.77;;;;;;;-144.47;100.00;61586.06;5030542;28;20485;-82
2022/08/21 00:52:07;;;;;;;1.85;1.60;;;;;;;-144.47;100.00;61586.06;5029892;28;20041;-82
2022/08/21 00:54:33;;;;;;;1.60;1.48;;;;;;;-144.47;100.00;61586.06;5030296;28;20188;-82
2022/08/21 00:57:04;;;;;;;2.40;1.30;;;;;;;-144.47;100.00;61586.06;5030327;28;20035;-82
2022/08/21 00:59:34;;;;;;;2.30;1.50;;;;;;;-144.47;100.00;61586.06;5030641;28;20450;-82
2022/08/21 01:02:00;;;;;;;1.85;1.55;;;;;;;-144.47;100.00;61586.06;5012457;28;20037;-83
2022/08/21 01:04:26;;;;;;;1.30;1.20;;;;;;;-144.47;100.00;61586.06;5030544;28;20025;-82
2022/08/21 01:06:52;;;;;;;2.28;1.40;;;;;;;-144.47;100.00;61586.06;5030196;28;20031;-82
2022/08/21 01:09:19;;;;;;;2.10;1.85;;;;;;;-144.47;100.00;61586.06;5030003;28;20072;-79
2022/08/21 01:11:45;;;;;;;2.63;1.60;;;;;;;-144.47;100.00;61586.06;5030393;28;20104;-81
2022/08/21 01:14:14;;;;;;;2.67;1.30;;;;;;;-144.47;100.00;61586.06;5029974;28;20021;-81
2022/08/21 01:16:48;;;;;;;2.95;1.52;;;;;;;-144.47;100.00;61586.06;5031487;28;20053;-81
2022/08/21 01:19:16;;;;;;;2.35;1.52;;;;;;;-144.47;100.00;61586.06;5030086;28;20029;-81
2022/08/21 01:21:42;;;;;;;2.13;1.58;;;;;;;-144.47;100.00;61586.06;5030030;28;20389;-81
2022/08/21 01:24:09;;;;;;;2.13;1.48;;;;;;;-144.47;100.00;61586.06;5029715;28;20037;-81
2022/08/21 01:26:36;;;;;;;3.67;1.50;;;;;;;-144.47;100.00;61586.06;5031341;28;20064;-81
2022/08/21 01:29:11;;;;;;;2.15;1.80;;;;;;;-144.47;100.00;61586.06;5033609;28;20042;-82
2022/08/21 01:31:38;;;;;;;4.15;1.65;;;;;;;-144.47;100.00;61586.06;5048941;28;20071;-82
2022/08/21 01:34:04;;;;;;;2.10;1.88;;;;;;;-144.47;100.00;61586.06;5033448;28;20104;-79
2022/08/21 01:36:31;;;;;;;1.83;1.40;;;;;;;-144.47;100.00;61586.06;5033435;28;20090;-82
2022/08/21 01:38:57;;;;;;;1.65;1.55;;;;;;;-144.47;100.00;61586.06;5033221;28;20034;-82
2022/08/21 01:41:22;;;;;;;2.17;1.70;;;;;;;-144.47;100.00;61586.06;5033151;28;20041;-82
2022/08/21 01:43:49;;;;;;;1.75;1.65;;;;;;;-144.47;100.00;61586.06;5033542;28;20156;-79
2022/08/21 01:46:14;;;;;;;3.42;1.98;;;;;;;-144.47;100.00;61586.06;5034211;28;20033;-82
2022/08/21 01:48:42;;;;;;;2.83;1.40;;;;;;;-144.47;100.00;61586.06;5015707;28;20052;-81
2022/08/21 01:51:08;;;;;;;1.70;1.60;;;;;;;-144.47;100.00;61586.06;5033217;28;20508;-81
2022/08/21 01:53:36;;;;;;;1.95;1.70;;;;;;;-144.47;100.00;61586.06;5015375;28;20030;-80
2022/08/21 01:56:06;;;;;;;2.72;1.63;;;;;;;-144.47;100.00;61586.06;5032879;28;20037;-80
2022/08/21 01:58:31;;;;;;;1.97;1.70;;;;;;;-144.47;100.00;61586.06;5033171;28;20079;-80
2022/08/21 02:00:57;;;;;;;3.50;2.40;;;;;;;-144.47;100.00;61586.06;5033234;28;20029;-82
2022/08/21 02:03:22;;;;;;;2.67;1.90;;;;;;;-144.47;100.00;61586.06;5032992;28;20095;-82
2022/08/21 02:05:48;;;;;;;2.85;2.10;;;;;;;-144.47;100.00;61586.06;5015536;28;20044;-81
2022/08/21 02:08:15;;;;;;;1.80;1.52;;;;;;;-144.47;100.00;61586.06;5028706;28;20087;-82
2022/08/21 02:10:42;;;;;;;2.05;1.95;;;;;;;-144.47;100.00;61586.06;5033108;28;20076;-82
2022/08/21 02:13:09;;;;;;;2.90;2.15;;;;;;;-144.47;100.00;61586.06;5032669;28;20030;-83
2022/08/21 02:15:36;;;;;;;3.38;2.00;;;;;;;-144.47;100.00;61586.06;5034276;28;20032;-82
2022/08/21 02:18:05;;;;;;;2.35;2.13;;;;;;;-144.47;100.00;61586.06;4998505;28;20045;-81
2022/08/21 02:20:35;;;;;;;1.83;1.70;;;;;;;-144.47;100.00;61586.06;5031554;28;20516;-82
2022/08/21 02:23:00;;;;;;;1.92;1.80;;;;;;;-144.47;100.00;61586.06;5032828;28;20030;-82
2022/08/21 02:25:27;;;;;;;2.95;1.90;;;;;;;-144.47;100.00;61586.06;5032469;28;20041;-82
2022/08/21 02:27:54;;;;;;;3.67;1.75;;;;;;;-144.47;100.00;61586.06;5032714;28;20741;-79
2022/08/21 02:30:25;;;;;;;1.92;1.83;;;;;;;-144.47;100.00;61586.06;5032433;28;20763;-81
2022/08/21 02:32:51;;;;;;;3.03;1.88;;;;;;;-144.47;100.00;61586.06;5029127;28;20034;-81
2022/08/21 02:35:18;;;;;;;3.03;1.85;;;;;;;-144.47;100.00;61586.06;5032446;28;20026;-81
2022/08/21 02:37:54;;;;;;;1.80;1.70;;;;;;;-144.47;100.00;61586.06;5032248;28;20120;-80
2022/08/21 02:40:24;;;;;;;1.75;1.65;;;;;;;-144.47;100.00;61586.06;5028633;28;20148;-81
2022/08/21 02:42:50;;;;;;;1.85;1.70;;;;;;;-144.47;100.00;61586.06;5011209;28;20405;-81
2022/08/21 02:45:17;;;;;;;1.70;1.60;;;;;;;-144.47;100.00;61586.06;5034323;28;20025;-81
2022/08/21 02:47:55;;;;;;;2.17;1.73;;;;;;;-144.47;100.00;61586.06;5031532;28;20051;-81
2022/08/21 02:50:30;;;;;;;2.38;1.90;;;;;;;-144.47;100.00;61586.06;5032146;28;20450;-82
2022/08/21 02:52:56;;;;;;;2.38;1.63;;;;;;;-144.47;100.00;61586.06;5014780;28;20033;-81
2022/08/21 02:58:04;;;;;;;;;;;;;;;-144.47;100.00;61586.06;4990411;28;20050;-90
2022/08/21 03:00:31;;;;;;;2.20;2.00;;;;;;;-144.47;100.00;61586.06;5002667;28;19906;-91
2022/08/21 03:02:58;;;;;;;1.90;1.80;;;;;;;-144.47;100.00;61586.06;5015749;28;20034;-90
2022/08/21 03:05:26;;;;;;;2.00;1.88;;;;;;;-144.47;100.00;61586.06;5016529;28;20173;-88
2022/08/21 03:07:52;;;;;;;4.55;2.38;;;;;;;-144.47;100.00;61586.06;5017249;28;20045;-88
2022/08/21 03:10:19;;;;;;;3.30;2.00;;;;;;;-144.47;100.00;61586.06;5017117;28;20570;-89
2022/08/21 03:12:46;;;;;;;3.33;1.75;;;;;;;-144.47;100.00;61586.06;5015988;28;20089;-89
2022/08/21 03:15:16;;;;;;;2.50;2.30;;;;;;;-144.47;100.00;61586.06;5014497;28;20113;-88
2022/08/21 03:17:43;;;;;;;2.28;1.77;;;;;;;-144.47;100.00;61586.06;5014385;28;20042;-87
2022/08/21 03:20:09;;;;;;;2.13;1.63;;;;;;;-144.47;100.00;61586.06;5007194;28;20065;-89
2022/08/21 03:22:35;;;;;;;2.08;1.88;;;;;;;-144.47;100.00;61586.06;4993724;28;20109;-91
2022/08/21 03:25:01;;;;;;;5.28;2.13;;;;;;;-144.47;100.00;61586.06;4993817;28;20478;-89
2022/08/21 03:27:28;;;;;;;2.22;2.03;;;;;;;-144.47;100.00;61586.06;4993477;28;20038;-93
2022/08/21 03:29:54;;;;;;;1.70;1.60;;;;;;;-144.47;100.00;61586.06;4994030;28;20031;-92
2022/08/21 03:32:21;;;;;;;2.50;2.30;;;;;;;-144.47;100.00;61586.06;4994136;28;20057;-93
2022/08/21 03:34:47;;;;;;;3.08;2.05;;;;;;;-144.47;100.00;61586.06;4984774;28;20045;-93
2022/08/21 03:37:13;;;;;;;3.55;2.10;;;;;;;-144.47;100.00;61586.06;4992166;28;20075;-92
2022/08/21 03:39:41;;;;;;;2.22;1.88;;;;;;;-144.47;100.00;61586.06;4975903;28;20039;-91
2022/08/21 03:42:07;;;;;;;2.45;2.17;;;;;;;-144.47;100.00;61586.06;4992272;28;20525;-91
2022/08/21 03:44:32;;;;;;;2.70;1.80;;;;;;;-144.47;100.00;61586.06;4992711;28;20225;-91
2022/08/21 03:46:58;;;;;;;2.42;2.22;;;;;;;-144.47;100.00;61586.06;4992348;28;20037;-90
2022/08/21 03:49:24;;;;;;;5.10;2.38;;;;;;;-144.47;100.00;61586.06;4991510;28;20034;-91
2022/08/21 03:51:50;;;;;;;3.08;2.13;;;;;;;-144.47;100.00;61586.06;4992793;28;20061;-91
2022/08/21 03:54:16;;;;;;;3.13;2.08;;;;;;;-144.47;100.00;61586.06;4988462;28;20046;-90
2022/08/21 03:56:41;;;;;;;2.75;2.55;;;;;;;-144.47;100.00;61586.06;4992117;28;20030;-88
2022/08/21 03:59:07;;;;;;;3.60;2.35;;;;;;;-144.47;100.00;61586.06;4991835;28;20438;-88
2022/08/21 04:01:34;;;;;;;2.90;2.20;;;;;;;-144.47;100.00;61586.06;4992054;28;20081;-88
2022/08/21 04:04:00;;;;;;;2.78;2.00;;;;;;;-144.47;100.00;61586.06;4974360;28;20403;-88
2022/08/21 04:06:26;;;;;;;2.97;2.08;;;;;;;-144.47;100.00;61586.06;4991257;28;20118;-86
2022/08/21 04:08:52;;;;;;;2.17;1.98;;;;;;;-144.47;100.00;61586.06;4991611;28;20026;-86
2022/08/21 04:11:18;;;;;;;2.40;2.20;;;;;;;-144.47;100.00;61586.06;4990994;28;20498;-85
2022/08/21 04:13:44;;;;;;;2.72;2.45;;;;;;;-144.47;100.00;61586.06;4991426;28;20026;-85
2022/08/21 04:16:09;;;;;;;3.88;2.70;;;;;;;-144.47;100.00;61586.06;4990906;28;20089;-86
2022/08/21 04:18:35;;;;;;;3.17;2.88;;;;;;;-144.47;100.00;61586.06;4991440;28;20026;-87
2022/08/21 04:21:02;;;;;;;2.90;2.70;;;;;;;-144.47;100.00;61586.06;4991239;28;20066;-90
2022/08/21 04:23:27;;;;;;;3.05;2.85;;;;;;;-144.47;100.00;61586.06;4974889;28;20142;-89
2022/08/21 04:25:55;;;;;;;3.10;2.90;;;;;;;-144.47;100.00;61586.06;4992323;28;20062;-87
2022/08/21 04:28:22;;;;;;;4.55;3.55;;;;;;;-144.47;100.00;61586.06;4991408;28;20069;-89
2022/08/21 04:30:47;;;;;;;3.50;3.20;;;;;;;-144.47;100.00;61586.06;4991797;28;20022;-86
2022/08/21 04:33:13;;;;;;;3.60;3.30;;;;;;;-144.47;100.00;61586.06;4991422;28;20034;-88
2022/08/21 04:35:39;;;;;;;4.25;3.25;;;;;;;-144.47;100.00;61586.06;4974747;28;20118;-88
2022/08/21 04:38:04;;;;;;;3.67;3.35;;;;;;;-144.47;100.00;61586.06;4991808;28;20034;-88
2022/08/21 04:40:30;;;;;;;5.75;3.45;;;;;;;-144.47;100.00;61586.06;4991907;28;20035;-87
2022/08/21 04:43:02;;;;;;;4.03;3.72;;;;;;;-144.47;100.00;61586.06;4992153;28;20088;-88
2022/08/21 04:45:32;;;;;;;4.22;3.10;;;;;;;-144.47;100.00;61586.06;4991863;28;20027;-90
2022/08/21 04:48:00;;;;;;;3.63;3.20;;;;;;;-144.47;100.00;61586.06;4991196;28;20385;-86
2022/08/21 04:50:38;;;;;;;3.78;3.40;;;;;;;-144.47;100.00;61586.06;4994042;28;20037;-86
2022/08/21 04:53:11;;;;;;;3.45;3.15;;;;;;;-144.47;100.00;61586.06;4991474;28;20045;-87
2022/08/21 04:55:38;;;;;;;4.43;3.20;;;;;;;-144.47;100.00;61586.06;4974472;28;20058;-91
2022/08/21 04:58:06;;;;;;;3.47;3.10;;;;;;;-144.47;100.00;61586.06;4991405;28;20110;-91
2022/08/21 05:00:32;;;;;;;4.60;3.17;;;;;;;-144.47;100.00;61586.06;4975423;28;20065;-87
2022/08/21 05:02:59;;;;;;;3.58;3.22;;;;;;;-144.47;100.00;61586.06;4995106;28;20144;-89
2022/08/21 05:05:28;;;;;;;3.40;3.10;;;;;;;-144.47;100.00;61586.06;4996251;28;20474;-89
2022/08/21 05:07:55;;;;;;;4.88;3.05;;;;;;;-144.47;100.00;61586.06;5000962;28;20050;-89
2022/08/21 05:10:22;;;;;;;5.78;3.25;;;;;;;-144.47;100.00;61586.06;5013018;28;20037;-88
2022/08/21 05:12:48;;;;;;;5.45;2.97;;;;;;;-144.47;100.00;61586.06;5009967;28;20514;-88
2022/08/21 05:15:14;;;;;;;3.00;2.80;;;;;;;-144.47;100.00;61586.06;4998154;28;20049;-88
2022/08/21 05:17:41;;;;;;;4.93;3.30;;;;;;;-144.47;100.00;61586.06;4994301;28;20069;-87
2022/08/21 05:20:08;;;;;;;2.90;2.70;;;;;;;-144.47;100.00;61586.06;4993451;28;20057;-88
2022/08/21 05:22:34;;;;;;;3.60;3.30;;;;;;;-144.47;100.00;61586.06;4995273;28;20123;-88
2022/08/21 05:24:59;;;;;;;3.00;2.80;;;;;;;-144.47;100.00;61586.06;4994689;28;20050;-88
2022/08/21 05:27:25;;;;;;;4.47;3.33;;;;;;;-144.47;100.00;61586.06;4994595;28;20049;-89
2022/08/21 05:29:50;;;;;;;3.60;3.30;;;;;;;-144.47;100.00;61586.06;4995260;28;20033;-90
2022/08/21 05:32:15;;;;;;;3.70;3.40;;;;;;;-144.47;100.00;61586.06;4995703;28;20263;-89
2022/08/21 05:34:41;;;;;;;3.90;3.60;;;;;;;-144.47;100.00;61586.06;4995027;28;20057;-90
2022/08/21 05:37:11;;;;;;;3.92;3.63;;;;;;;-144.47;100.00;61586.06;4993032;28;20070;-89
2022/08/21 05:39:37;;;;;;;4.13;3.83;;;;;;;-144.47;100.00;61586.06;4996157;28;20042;-92
2022/08/21 05:42:02;;;;;;;4.68;3.88;;;;;;;-144.47;100.00;61586.06;4994763;28;20042;-94
2022/08/21 05:44:28;;;;;;;4.55;3.97;;;;;;;-144.47;100.00;61586.06;4995505;28;20038;-93
2022/08/21 05:46:54;;;;;;;4.90;4.18;;;;;;;-144.47;100.00;61586.06;5000761;28;20042;-91
2022/08/21 05:49:19;;;;;;;4.55;3.65;;;;;;;-144.47;100.00;61586.06;5004945;28;20429;-90
2022/08/21 05:51:44;;;;;;;8.50;4.72;;;;;;;-144.47;100.00;61586.06;4997351;28;20027;-90
2022/08/21 05:54:11;;;;;;;4.32;3.97;;;;;;;-144.47;100.00;61586.06;4997135;28;20099;-88
2022/08/21 05:56:36;;;;;;;5.47;4.28;;;;;;;-144.47;100.00;61586.06;4994291;28;20181;-91
2022/08/21 05:59:03;;;;;;;4.55;4.15;;;;;;;-144.47;100.00;61586.06;4994317;28;20125;-91
2022/08/21 06:01:28;;;;;;;5.65;4.68;;;;;;;-144.47;100.00;61586.06;4977001;28;20042;-92
2022/08/21 06:03:54;;;;;;;6.75;4.63;;;;;;;-144.47;100.00;61586.06;4994973;28;20038;-94
2022/08/21 06:06:19;;;;;;;4.72;4.28;;;;;;;-144.47;100.00;61586.06;4961454;28;20034;-91
2022/08/21 06:08:45;;;;;;;5.47;4.18;;;;;;;-144.47;100.00;61586.06;4996444;28;20038;-92
2022/08/21 06:11:10;;;;;;;8.15;4.75;;;;;;;-144.47;100.00;61586.06;5001220;28;20057;-93
2022/08/21 06:13:37;;;;;;;4.80;4.40;;;;;;;-144.47;100.00;61586.06;4999927;28;20044;-94
2022/08/21 06:16:07;;;;;;;5.28;4.60;;;;;;;-144.47;100.00;61586.06;4999707;28;20081;-94
2022/08/21 06:18:33;;;;;;;5.45;4.95;;;;;;;-144.47;100.00;61586.06;4996541;28;20022;-96
2022/08/21 06:20:59;;;;;;;6.53;5.88;;;;;;;-144.47;100.00;61586.06;4999239;28;20066;-93
2022/08/21 06:23:24;;;;;;;6.07;5.47;;;;;;;-144.47;100.00;61586.06;4994855;28;20662;-93
2022/08/21 06:25:49;;;;;;;6.15;5.53;;;;;;;-144.47;100.00;61586.06;4994391;28;20045;-90
2022/08/21 06:28:15;;;;;;;5.65;5.18;;;;;;;-144.47;100.00;61586.06;4995034;28;20030;-93
2022/08/21 06:30:40;;;;;;;5.97;5.47;;;;;;;-144.47;100.00;61586.06;4994179;28;20045;-92
2022/08/21 06:33:06;;;;;;;7.07;6.47;;;;;;;-144.47;100.00;61586.06;4995363;28;20042;-94
2022/08/21 06:35:33;;;;;;;6.03;5.43;;;;;;;-144.47;100.00;61586.06;5000796;28;20474;-92
2022/08/21 06:37:59;;;;;;;6.07;5.47;;;;;;;-144.47;100.00;61586.06;4994830;28;20105;-90
2022/08/21 06:40:26;;;;;;;8.02;5.30;;;;;;;-144.47;100.00;61586.06;4995600;28;20128;-91
2022/08/21 06:42:51;;;;;;;6.53;5.93;;;;;;;-144.47;100.00;61586.06;5003034;28;20473;-89
2022/08/21 06:45:18;;;;;;;6.82;5.70;;;;;;;-144.47;100.00;61586.06;4994263;28;20057;-89
2022/08/21 06:47:44;;;;;;;6.97;6.28;;;;;;;-144.47;100.00;61586.06;4974208;28;20077;-92
2022/08/21 06:50:10;;;;;;;6.55;5.65;;;;;;;-144.47;100.00;61586.06;4977469;28;20038;-92
2022/08/21 06:52:36;;;;;;;7.40;5.88;;;;;;;-144.47;100.00;61586.06;4994151;28;20045;-92
2022/08/21 06:55:05;;;;;;;6.35;5.70;;;;;;;-144.47;100.00;61586.06;4988423;28;20371;-92
2022/08/21 06:57:30;;;;;;;5.45;4.95;;;;;;;-144.47;100.00;61586.06;4993443;28;20457;-93
2022/08/21 06:59:56;;;;;;;5.88;5.38;;;;;;;-144.47;100.00;61586.06;4993283;28;20046;-90
2022/08/21 07:02:21;;;;;;;7.43;5.53;;;;;;;-144.47;100.00;61586.06;4993060;28;20030;-91
2022/08/21 07:04:47;;;;;;;9.50;6.28;;;;;;;-144.47;100.00;61586.06;4992840;28;20030;-91
2022/08/21 07:07:12;;;;;;;8.38;6.10;;;;;;;-144.47;100.00;61586.06;4999689;28;20047;-92
2022/08/21 07:09:38;;;;;;;7.15;6.40;;;;;;;-144.47;100.00;61586.06;4997441;28;20386;-90
2022/08/21 07:12:04;;;;;;;7.20;5.25;;;;;;;-144.47;100.00;61586.06;4992775;28;20425;-90
2022/08/21 07:14:30;;;;;;;5.45;4.90;;;;;;;-144.47;100.00;61586.06;4992185;28;20034;-91
2022/08/21 07:16:55;;;;;;;5.10;4.60;;;;;;;-144.47;100.00;61586.06;4991174;28;20450;-92
2022/08/21 07:19:21;;;;;;;6.97;4.22;;;;;;;-144.47;100.00;61586.06;4991640;28;20030;-91
2022/08/21 07:21:47;;;;;;;19.42;5.60;;;;;;;-144.47;100.00;61586.06;4988495;28;20260;-90
2022/08/21 07:24:13;;;;;;;5.28;3.88;;;;;;;-144.47;100.00;61586.06;4990579;28;20494;-91
2022/08/21 07:26:39;;;;;;;5.95;4.30;;;;;;;-144.47;100.00;61586.06;4991800;28;20026;-89
2022/08/21 07:29:04;;;;;;;6.13;4.63;;;;;;;-144.47;100.00;61586.06;4974382;28;20054;-93
2022/08/21 07:31:30;;;;;;;4.28;3.75;;;;;;;-144.47;100.00;61586.06;4991785;28;20122;-87
2022/08/21 07:33:56;;;;;;;5.10;4.18;;;;;;;-144.47;100.00;61586.06;4991618;28;20026;-88
2022/08/21 07:36:21;;;;;;;4.55;4.05;;;;;;;-144.47;100.00;61586.06;4991410;28;20181;-92
2022/08/21 07:38:47;;;;;;;4.20;3.70;;;;;;;-144.47;100.00;61586.06;4992262;28;20041;-92
2022/08/21 07:41:16;;;;;;;4.60;4.20;;;;;;;-144.47;100.00;61586.06;4991170;28;20034;-91
2022/08/21 07:43:41;;;;;;;8.05;4.28;;;;;;;-144.47;100.00;61586.06;4991248;28;20042;-81
2022/08/21 07:46:07;;;;;;;6.13;4.10;;;;;;;-144.47;100.00;61586.06;4989674;28;20489;-82
2022/08/21 07:48:33;;;;;;;4.05;3.75;;;;;;;-144.47;100.00;61586.06;4989855;28;20037;-83
2022/08/21 07:51:04;;;;;;;3.20;2.90;;;;;;;-144.47;100.00;61586.06;4991114;28;20065;-79
2022/08/21 07:53:29;;;;;;;3.47;2.70;;;;;;;-144.47;100.00;61586.06;4988440;28;20030;-83
2022/08/21 07:55:57;;;;;;;3.42;3.10;;;;;;;-144.47;100.00;61586.06;4970296;28;20483;-84
2022/08/21 07:58:23;;;;;;;3.15;2.95;;;;;;;-144.47;100.00;61586.06;4982209;28;20399;-83
2022/08/21 08:00:49;;;;;;;4.18;3.35;;;;;;;-144.47;100.00;61586.06;4973497;28;20034;-82
2022/08/21 08:03:15;;;;;;;3.88;2.70;;;;;;;-144.47;100.00;61586.06;4988954;28;20022;-83
2022/08/21 08:05:40;;;;;;;3.42;2.78;;;;;;;-144.47;100.00;61586.06;4983835;28;20686;-84
2022/08/21 08:08:06;;;;;;;3.50;2.50;;;;;;;-144.47;100.00;61586.06;4980696;28;20142;-83
2022/08/21 08:10:31;;;;;;;3.38;2.40;;;;;;;-144.47;100.00;61586.06;4987838;28;20046;-84
2022/08/21 08:12:57;;;;;;;2.45;2.20;;;;;;;-144.47;100.00;61586.06;4982385;28;20057;-82
2022/08/21 08:15:24;;;;;;;3.75;2.08;;;;;;;-144.47;100.00;61586.06;4970622;28;20098;-81
2022/08/21 08:17:50;;;;;;;2.85;2.38;;;;;;;-144.47;100.00;61586.06;4986675;28;20045;-83
2022/08/21 08:20:18;;;;;;;2.58;2.33;;;;;;;-144.47;100.00;61586.06;4985405;28;20026;-84
2022/08/21 08:22:44;;;;;;;2.40;2.20;;;;;;;-144.47;100.00;61586.06;4976441;28;20043;-82
2022/08/21 08:25:12;;;;;;;2.80;2.30;;;;;;;-144.47;100.00;61586.06;4983655;28;20030;-81
2022/08/21 08:27:38;;;;;;;2.80;2.53;;;;;;;-144.47;100.00;61586.06;4987759;28;20088;-76
2022/08/21 08:30:06;;;;;;;3.85;2.13;;;;;;;-144.47;100.00;61586.06;4988141;28;20038;-78
2022/08/21 08:32:31;;;;;;;2.65;2.00;;;;;;;-144.47;100.00;61586.06;4987216;28;20057;-77
2022/08/21 08:34:57;;;;;;;2.30;2.10;;;;;;;-144.47;100.00;61586.06;4984169;28;20466;-82
2022/08/21 08:37:22;;;;;;;2.35;2.15;;;;;;;-144.47;100.00;61586.06;4993077;28;20081;-77
2022/08/21 08:39:49;;;;;;;2.15;1.95;;;;;;;-144.47;100.00;61586.06;4992905;28;20034;-77
2022/08/21 08:42:25;;;;;;;3.35;1.77;;;;;;;-144.47;100.00;61586.06;4984425;28;20080;-79
2022/08/21 08:44:57;;;;;;;1.98;1.88;;;;;;;-144.47;100.00;61586.06;5007291;28;20650;-80
2022/08/21 08:47:25;;;;;;;2.28;1.92;;;;;;;-144.47;100.00;61586.06;4990941;28;20494;-78
2022/08/21 08:50:05;;;;;;;1.80;1.70;;;;;;;-144.47;100.00;61586.06;4989431;28;20065;-78
2022/08/21 08:52:58;;;;;;;3.60;1.27;;;;;;;-144.47;100.00;61586.06;4989001;28;20034;-79
2022/08/21 08:55:38;;;;;;;2.25;1.33;;;;;;;-144.47;100.00;61586.06;4990262;28;20375;-80
2022/08/21 08:58:04;;;;;;;1.90;1.35;;;;;;;-144.47;100.00;61586.06;4990561;28;20113;-80
2022/08/21 09:00:30;;;;;;;1.92;1.20;;;;;;;-144.47;100.00;61586.06;4992173;28;20122;-80
2022/08/21 09:02:59;;;;;;;1.48;1.30;;;;;;;-144.47;100.00;61586.06;4991251;28;20031;-81
2022/08/21 09:05:28;;;;;;;1.60;1.40;;;;;;;-144.47;100.00;61586.06;4978957;28;20105;-80
2022/08/21 09:08:31;;;;;;;1.63;1.17;;;;;;;-144.47;100.00;61586.06;4991797;28;20103;-81
2022/08/21 09:11:03;;;;;;;1.27;1.05;;;;;;;-144.47;100.00;61586.06;4990698;28;20069;-80
2022/08/21 09:14:04;;;;;;;1.40;1.30;;;;;;;-144.47;100.00;61586.06;4991803;28;20030;-80
2022/08/21 09:16:38;;;;;;;1.20;1.10;;;;;;;-144.47;100.00;61586.06;4933697;29;20043;-80
2022/08/21 09:19:37;;;;;;;2.70;1.10;;;;;;;-144.47;100.00;61586.06;4932277;29;20182;-81
2022/08/21 09:22:15;;;;;;;1.83;1.10;;;;;;;-144.47;100.00;61586.06;4930899;29;20531;-78
2022/08/21 09:24:53;;;;;;;0.70;0.70;;;;;;;-144.47;100.00;61586.06;4932458;29;20208;-90
2022/08/21 09:27:21;;;;;;;1.33;0.70;;;;;;;-144.47;100.00;61586.06;4918541;29;20558;-86
2022/08/21 09:29:50;;;;;;;0.75;0.75;;;;;;;-144.47;100.00;61586.06;4932238;29;20054;-87
2022/08/21 09:32:36;;;;;;;1.00;1.00;;;;;;;-144.47;100.00;61586.06;4957179;29;20039;-84
2022/08/21 09:35:09;;;;;;;2.83;1.30;;;;;;;-144.47;100.00;61586.06;4957420;28;20136;-82
2022/08/21 09:37:48;;;;;;;1.65;1.02;;;;;;;-144.47;100.00;61586.06;4958311;28;20095;-90
2022/08/21 09:40:45;;;;;;;2.47;0.95;;;;;;;-144.47;100.00;61586.06;4959127;28;20622;-91
2022/08/21 09:43:13;;;;;;;1.10;1.10;;;;;;;-144.47;100.00;61586.06;4959627;28;20056;-90
2022/08/21 09:45:41;;;;;;;1.10;1.00;;;;;;;-144.47;100.00;61586.06;4960385;28;20091;-91
2022/08/21 09:48:23;;;;;;;1.23;1.13;;;;;;;-144.47;100.00;61586.06;4959558;28;20048;-90
2022/08/21 09:50:50;;;;;;;0.93;0.93;;;;;;;-144.47;100.00;61586.06;4975396;28;20110;-90
2022/08/21 09:53:19;;;;;;;1.08;0.98;;;;;;;-144.47;100.00;61586.06;4996829;28;20031;-91
2022/08/21 09:58:41;;;;;;;0.70;0.70;;;;;;;-144.47;100.00;61586.06;4999063;28;20061;-89
2022/08/21 10:01:13;;;;;;;0.98;0.80;;;;;;;-144.47;100.00;61586.06;4999941;28;20125;-90
2022/08/21 10:03:38;;;;;;;1.52;0.70;;;;;;;-144.47;100.00;61586.06;4995159;28;20104;-90
2022/08/21 10:06:08;;;;;;;1.67;0.77;;;;;;;-144.47;100.00;61586.06;4994617;28;20467;-90
2022/08/21 10:08:36;;;;;;;1.33;0.77;;;;;;;-144.47;100.00;61586.06;4994592;28;20034;-90
2022/08/21 10:11:12;;;;;;;0.73;0.65;;;;;;;-144.47;100.00;61586.06;4994071;28;20050;-91
2022/08/21 10:14:06;;;;;;;0.98;0.98;;;;;;;-144.47;100.00;61586.06;4994268;28;20501;-91
2022/08/21 10:16:34;;;;;;;1.52;0.90;;;;;;;-144.47;100.00;61586.06;4992544;28;20422;-90
2022/08/21 10:19:16;;;;;;;2.15;1.25;;;;;;;-144.47;100.00;61586.06;4995544;28;20099;-89
2022/08/21 10:22:06;;;;;;;0.77;0.77;;;;;;;-144.47;100.00;61586.06;4995181;28;20046;-90
2022/08/21 10:24:34;;;;;;;0.60;0.60;;;;;;;-144.47;100.00;61586.06;4992274;28;20045;-90
2022/08/21 10:27:32;;;;;;;0.80;0.68;;;;;;;-144.47;100.00;61586.06;4994537;28;20046;-89
2022/08/21 10:30:19;;;;;;;1.23;0.60;;;;;;;-144.47;100.00;61586.06;4992084;28;20034;-89
2022/08/21 10:33:03;;;;;;;0.93;0.80;;;;;;;-144.47;100.00;61586.06;4993456;28;20065;-90
2022/08/21 10:35:52;;;;;;;1.42;0.68;;;;;;;-144.47;100.00;61586.06;4990873;28;20161;-90
2022/08/21 10:38:42;;;;;;;0.82;0.60;;;;;;;-144.47;100.00;61586.06;4980361;28;20120;-90
2022/08/21 10:41:13;;;;;;;;;;;;;;;-144.47;100.00;61586.06;4991671;28;20034;-89
2022/08/21 10:44:18;;;;;;;2.08;0.70;;;;;;;-144.47;100.00;61586.06;4993593;28;19949;-90
2022/08/21 10:47:04;;;;;;;1.38;0.50;;;;;;;-144.47;100.00;61586.06;4992604;28;20062;-89
2022/08/21 10:49:32;;;;;;;1.63;0.60;;;;;;;-144.47;100.00;61586.06;4986514;28;20026;-89
2022/08/21 10:52:16;;;;;;;0.60;0.60;;;;;;;-144.47;100.00;61586.06;4992656;28;20042;-88
2022/08/21 10:54:52;;;;;;;0.20;0.20;;;;;;;-144.47;100.00;61586.06;4992416;28;20514;-88
2022/08/21 10:57:57;;;;;;;2.25;0.50;;;;;;;-144.47;100.00;61586.06;4988032;28;20046;-89
2022/08/21 11:00:29;;;;;;;0.40;0.38;;;;;;;-144.47;100.00;61586.06;4989939;28;20034;-89
2022/08/21 11:03:04;;;;;;;0.43;0.43;;;;;;;-144.47;100.00;61586.06;4992733;28;20034;-89
2022/08/21 11:05:42;;;;;;;0.90;0.45;;;;;;;-144.47;100.00;61586.06;4992354;28;20038;-88
2022/08/21 11:08:15;;;;;;;0.50;0.50;;;;;;;-144.47;100.00;61586.06;4991888;28;20101;-88
2022/08/21 11:10:45;;;;;;;0.60;0.40;;;;;;;-144.47;100.00;61586.06;4991801;28;20030;-88
2022/08/21 11:13:19;;;;;;;0.60;0.40;;;;;;;-144.47;100.00;61586.06;4991845;28;20034;-87
2022/08/21 11:15:56;;;;;;;0.43;0.40;;;;;;;-144.47;100.00;61586.06;4991852;28;20065;-89
2022/08/21 11:18:31;;;;;;;1.85;0.50;;;;;;;-144.47;100.00;61586.06;4970967;28;20050;-88
2022/08/21 11:21:25;;;;;;;0.65;0.47;;;;;;;-144.47;100.00;61586.06;4989026;28;20104;-89
2022/08/21 11:24:14;;;;;;;0.40;0.40;;;;;;;-144.47;100.00;61586.06;4988762;28;20038;-89